Ternholm — OWIM2 — position and weather

sailwx.info

Track history (hours):
 
Tides and Currents Weather Stations Pressure Air Temp Water Temp Dewpoint Dewpoint Depression Visibility Wind Speed Wind Dir Waves Ship Positions

Ternholm

Last reported at 2015-Jan-26 06:19 UTC. Time now 2015-Jan-26 14:30 UTC.
Position N 55°33' E 015°09'.

Length 141 m; draft 8.8 m.

Type: Ship (hazmat cat B). MMSI: 219076000.

Date/timePositionNaut miles runAvg speedWind from/ knotsBaromVisibWave heightAir tempDewpointWater temp
2015-Jan-26 06:19N 55°33' E 015°09'911.6
2015-Jan-26 05:33N 55°28' E 014°56'1111.1
2015-Jan-26 04:33N 55°23' E 014°39'1211.5
2015-Jan-26 03:32N 55°14' E 014°26'1111.5
2015-Jan-26 02:33N 55°05' E 014°14'1111.1
2015-Jan-26 01:33N 54°59' E 013°57'1211.7
2015-Jan-26 00:33N 54°56' E 013°38'1211.5
2015-Jan-25 23:33N 54°52' E 013°19'1411.6
2015-Jan-25 22:23N 54°48' E 012°56'1011.5
2015-Jan-25 21:33N 54°44' E 012°41'1211.7
2015-Jan-25 20:33N 54°38' E 012°25'1111.1
2015-Jan-25 19:33N 54°29' E 012°13'1010.1
2015-Jan-25 18:33N 54°25' E 011°57'1111.4
2015-Jan-25 17:33N 54°27' E 011°38'1211.6
2015-Jan-25 16:33N 54°32' E 011°20'1211.5
2015-Jan-25 15:33N 54°38' E 011°03'119 9.9
2015-Jan-25 03:31N 56°35' E 011°42'1111.7
2015-Jan-25 02:33N 56°45' E 011°52'1413.9
2015-Jan-25 01:33N 56°58' E 011°44'1313.0
2015-Jan-25 00:33N 57°10' E 011°35'1111.5
2015-Jan-24 23:33N 57°21' E 011°29'1010.2
2015-Jan-24 22:33N 57°31' E 011°32'1010.5
2015-Jan-24 21:33N 57°39' E 011°45'5 4.7
2015-Jan-24 20:33N 57°41' E 011°53'0 0.0
2015-Jan-24 19:33N 57°41' E 011°53'0 0.0
2015-Jan-24 18:33N 57°41' E 011°53'0 0.0
2015-Jan-24 17:33N 57°41' E 011°53'0 0.0
2015-Jan-24 16:33N 57°41' E 011°53'0 0.0
2015-Jan-24 15:33N 57°41' E 011°53'0 0.0
2015-Jan-24 14:33N 57°41' E 011°53'0 0.0
2015-Jan-24 13:33N 57°41' E 011°53'0 0.0
2015-Jan-24 12:33N 57°41' E 011°53'0 0.0
2015-Jan-24 11:33N 57°41' E 011°53'0 0.0
2015-Jan-24 10:33N 57°41' E 011°53'0 0.0
2015-Jan-24 09:33N 57°41' E 011°53'0 0.0
2015-Jan-24 08:33N 57°41' E 011°53'0 0.0
2015-Jan-24 07:33N 57°41' E 011°53'0 0.0
2015-Jan-24 06:33N 57°41' E 011°53'0 0.0
2015-Jan-24 05:33N 57°41' E 011°53'0 0.0
2015-Jan-24 04:33N 57°41' E 011°53'0 0.0
2015-Jan-24 03:33N 57°41' E 011°53'0 0.0
2015-Jan-24 02:33N 57°41' E 011°53'0 0.0
2015-Jan-24 01:33N 57°41' E 011°53'0 0.0
2015-Jan-24 00:33N 57°41' E 011°53'0 0.0
2015-Jan-23 23:33N 57°41' E 011°53'0 0.0
2015-Jan-23 22:33N 57°41' E 011°53'0 0.0
2015-Jan-23 21:33N 57°41' E 011°53'0 0.1
2015-Jan-23 20:32N 57°41' E 011°53'0 0.0
2015-Jan-23 19:29N 57°41' E 011°53'0 0.0
2015-Jan-23 18:32N 57°41' E 011°53'0 0.0
2015-Jan-23 17:32N 57°41' E 011°53'0 0.0
2015-Jan-23 16:32N 57°41' E 011°53'0 0.0
2015-Jan-23 15:32N 57°41' E 011°53'0 0.0
2015-Jan-23 14:32N 57°41' E 011°53'0 0.0
2015-Jan-23 13:29N 57°41' E 011°53'0 0.0
2015-Jan-23 12:32N 57°41' E 011°53'0 0.0
2015-Jan-23 11:32N 57°41' E 011°53'0 0.0
2015-Jan-23 10:32N 57°41' E 011°53'0 0.0
2015-Jan-23 09:32N 57°41' E 011°53'0 0.0
2015-Jan-23 08:32N 57°41' E 011°53'5 4.8
2015-Jan-23 07:33N 57°39' E 011°45'1010.0
2015-Jan-23 06:33N 57°30' E 011°38'1110.7
2015-Jan-23 05:33N 57°20' E 011°45'1110.9
2015-Jan-23 04:33N 57°11' E 011°56'1111.1
2015-Jan-23 03:33N 56°60' E 012°02'1111.2
2015-Jan-23 02:33N 56°49' E 012°08'1111.4
2015-Jan-23 01:33N 56°38' E 012°13'1212.4
2015-Jan-23 00:33N 56°26' E 012°16'1313.0
2015-Jan-22 23:33N 56°14' E 012°23'1413.6
2015-Jan-22 22:33N 56°03' E 012°39'1211.9
2015-Jan-22 21:33N 55°52' E 012°45'1211.6
2015-Jan-22 20:33N 55°42' E 012°54'8 8.4
2015-Jan-22 19:33N 55°34' E 012°49'10 9.8
2015-Jan-22 18:33N 55°25' E 012°42'9 9.0
2015-Jan-22 17:33N 55°17' E 012°47'1110.7
2015-Jan-22 16:33N 55°15' E 013°06'1111.2
2015-Jan-22 15:33N 55°15' E 013°26'1211.5
2015-Jan-22 14:33N 55°14' E 013°46'1212.1
2015-Jan-22 13:33N 55°14' E 014°07'1110.5
2015-Jan-22 12:33N 55°18' E 014°23'1212.0
2015-Jan-22 11:33N 55°27' E 014°37'1211.7
2015-Jan-22 10:33N 55°33' E 014°55'1211.3
2015-Jan-22 09:30N 55°39' E 015°14'11110.9
2015-Jan-21 23:14N 57°04' E 017°23'511.6
2015-Jan-21 22:48N 57°09' E 017°26'311.6
2015-Jan-21 22:30N 57°12' E 017°29'1411.8
2015-Jan-21 21:19N 57°25' E 017°39'  
2015-Jan-16 18:33N 55°39' E 015°27'1212.3
2015-Jan-16 17:33N 55°33' E 015°07'1212.3
2015-Jan-16 16:33N 55°27' E 014°49'1211.7
2015-Jan-16 15:33N 55°19' E 014°33'1211.5
2015-Jan-16 14:33N 55°10' E 014°21'1211.8
2015-Jan-16 13:33N 55°01' E 014°07'1211.7
2015-Jan-16 12:33N 54°58' E 013°48'1211.6
2015-Jan-16 11:33N 54°54' E 013°29'1211.9
2015-Jan-16 10:33N 54°50' E 013°09'1212.0
2015-Jan-16 09:33N 54°47' E 012°49'1211.6
2015-Jan-16 08:33N 54°41' E 012°32'1111.5
2015-Jan-16 07:33N 54°33' E 012°17'1110.5
2015-Jan-16 06:33N 54°25' E 012°06'  
Track history (hours):
 
Tides and Currents Weather Stations Pressure Air Temp Water Temp Dewpoint Dewpoint Depression Visibility Wind Speed Wind Dir Waves Ship Positions

Ternholm

Last reported at 2015-Jan-26 06:19 UTC. Time now 2015-Jan-26 14:30 UTC.
Position N 55°33' E 015°09'.

Length 141 m; draft 8.8 m.

Type: Ship (hazmat cat B). MMSI: 219076000.

Date/timePositionNaut miles runAvg speedWind from/ knotsBaromVisibWave heightAir tempDewpointWater temp
2015-Jan-26 06:19N 55°33' E 015°09'911.6
2015-Jan-26 05:33N 55°28' E 014°56'1111.1
2015-Jan-26 04:33N 55°23' E 014°39'1211.5
2015-Jan-26 03:32N 55°14' E 014°26'1111.5
2015-Jan-26 02:33N 55°05' E 014°14'1111.1
2015-Jan-26 01:33N 54°59' E 013°57'1211.7
2015-Jan-26 00:33N 54°56' E 013°38'1211.5
2015-Jan-25 23:33N 54°52' E 013°19'1411.6
2015-Jan-25 22:23N 54°48' E 012°56'1011.5
2015-Jan-25 21:33N 54°44' E 012°41'1211.7
2015-Jan-25 20:33N 54°38' E 012°25'1111.1
2015-Jan-25 19:33N 54°29' E 012°13'1010.1
2015-Jan-25 18:33N 54°25' E 011°57'1111.4
2015-Jan-25 17:33N 54°27' E 011°38'1211.6
2015-Jan-25 16:33N 54°32' E 011°20'1211.5
2015-Jan-25 15:33N 54°38' E 011°03'119 9.9
2015-Jan-25 03:31N 56°35' E 011°42'1111.7
2015-Jan-25 02:33N 56°45' E 011°52'1413.9
2015-Jan-25 01:33N 56°58' E 011°44'1313.0
2015-Jan-25 00:33N 57°10' E 011°35'1111.5
2015-Jan-24 23:33N 57°21' E 011°29'1010.2
2015-Jan-24 22:33N 57°31' E 011°32'1010.5
2015-Jan-24 21:33N 57°39' E 011°45'5 4.7
2015-Jan-24 20:33N 57°41' E 011°53'0 0.0
2015-Jan-24 19:33N 57°41' E 011°53'0 0.0
2015-Jan-24 18:33N 57°41' E 011°53'0 0.0
2015-Jan-24 17:33N 57°41' E 011°53'0 0.0
2015-Jan-24 16:33N 57°41' E 011°53'0 0.0
2015-Jan-24 15:33N 57°41' E 011°53'0 0.0
2015-Jan-24 14:33N 57°41' E 011°53'0 0.0
2015-Jan-24 13:33N 57°41' E 011°53'0 0.0
2015-Jan-24 12:33N 57°41' E 011°53'0 0.0
2015-Jan-24 11:33N 57°41' E 011°53'0 0.0
2015-Jan-24 10:33N 57°41' E 011°53'0 0.0
2015-Jan-24 09:33N 57°41' E 011°53'0 0.0
2015-Jan-24 08:33N 57°41' E 011°53'0 0.0
2015-Jan-24 07:33N 57°41' E 011°53'0 0.0
2015-Jan-24 06:33N 57°41' E 011°53'0 0.0
2015-Jan-24 05:33N 57°41' E 011°53'0 0.0
2015-Jan-24 04:33N 57°41' E 011°53'0 0.0
2015-Jan-24 03:33N 57°41' E 011°53'0 0.0
2015-Jan-24 02:33N 57°41' E 011°53'0 0.0
2015-Jan-24 01:33N 57°41' E 011°53'0 0.0
2015-Jan-24 00:33N 57°41' E 011°53'0 0.0
2015-Jan-23 23:33N 57°41' E 011°53'0 0.0
2015-Jan-23 22:33N 57°41' E 011°53'0 0.0
2015-Jan-23 21:33N 57°41' E 011°53'0 0.1
2015-Jan-23 20:32N 57°41' E 011°53'0 0.0
2015-Jan-23 19:29N 57°41' E 011°53'0 0.0
2015-Jan-23 18:32N 57°41' E 011°53'0 0.0
2015-Jan-23 17:32N 57°41' E 011°53'0 0.0
2015-Jan-23 16:32N 57°41' E 011°53'0 0.0
2015-Jan-23 15:32N 57°41' E 011°53'0 0.0
2015-Jan-23 14:32N 57°41' E 011°53'0 0.0
2015-Jan-23 13:29N 57°41' E 011°53'0 0.0
2015-Jan-23 12:32N 57°41' E 011°53'0 0.0
2015-Jan-23 11:32N 57°41' E 011°53'0 0.0
2015-Jan-23 10:32N 57°41' E 011°53'0 0.0
2015-Jan-23 09:32N 57°41' E 011°53'0 0.0
2015-Jan-23 08:32N 57°41' E 011°53'5 4.8
2015-Jan-23 07:33N 57°39' E 011°45'1010.0
2015-Jan-23 06:33N 57°30' E 011°38'1110.7
2015-Jan-23 05:33N 57°20' E 011°45'1110.9
2015-Jan-23 04:33N 57°11' E 011°56'1111.1
2015-Jan-23 03:33N 56°60' E 012°02'1111.2
2015-Jan-23 02:33N 56°49' E 012°08'1111.4
2015-Jan-23 01:33N 56°38' E 012°13'1212.4
2015-Jan-23 00:33N 56°26' E 012°16'1313.0
2015-Jan-22 23:33N 56°14' E 012°23'1413.6
2015-Jan-22 22:33N 56°03' E 012°39'1211.9
2015-Jan-22 21:33N 55°52' E 012°45'1211.6
2015-Jan-22 20:33N 55°42' E 012°54'8 8.4
2015-Jan-22 19:33N 55°34' E 012°49'10 9.8
2015-Jan-22 18:33N 55°25' E 012°42'9 9.0
2015-Jan-22 17:33N 55°17' E 012°47'1110.7
2015-Jan-22 16:33N 55°15' E 013°06'1111.2
2015-Jan-22 15:33N 55°15' E 013°26'1211.5
2015-Jan-22 14:33N 55°14' E 013°46'1212.1
2015-Jan-22 13:33N 55°14' E 014°07'1110.5
2015-Jan-22 12:33N 55°18' E 014°23'1212.0
2015-Jan-22 11:33N 55°27' E 014°37'1211.7
2015-Jan-22 10:33N 55°33' E 014°55'1211.3
2015-Jan-22 09:30N 55°39' E 015°14'11110.9
2015-Jan-21 23:14N 57°04' E 017°23'511.6
2015-Jan-21 22:48N 57°09' E 017°26'311.6
2015-Jan-21 22:30N 57°12' E 017°29'1411.8
2015-Jan-21 21:19N 57°25' E 017°39'  
2015-Jan-16 18:33N 55°39' E 015°27'1212.3
2015-Jan-16 17:33N 55°33' E 015°07'1212.3
2015-Jan-16 16:33N 55°27' E 014°49'1211.7
2015-Jan-16 15:33N 55°19' E 014°33'1211.5
2015-Jan-16 14:33N 55°10' E 014°21'1211.8
2015-Jan-16 13:33N 55°01' E 014°07'1211.7
2015-Jan-16 12:33N 54°58' E 013°48'1211.6
2015-Jan-16 11:33N 54°54' E 013°29'1211.9
2015-Jan-16 10:33N 54°50' E 013°09'1212.0
2015-Jan-16 09:33N 54°47' E 012°49'1211.6
2015-Jan-16 08:33N 54°41' E 012°32'1111.5
2015-Jan-16 07:33N 54°33' E 012°17'1110.5
2015-Jan-16 06:33N 54°25' E 012°06'  

Dump ship's entire track history